createdAt,value
2024-05-09T00:00:22.142Z,57223.46
2024-05-09T00:02:47.736Z,57207.58
2024-05-09T00:05:18.301Z,57224.53
2024-05-09T00:07:49.355Z,57221.35
2024-05-09T00:10:28.777Z,57201.23
2024-05-09T00:12:51.513Z,57201.23
2024-05-09T00:15:21.918Z,57218.17
2024-05-09T00:17:52.753Z,57175.81
2024-05-09T00:20:33.112Z,57203.34
2024-05-09T00:22:57.076Z,57240.41
2024-05-09T00:25:27.291Z,57191.70
2024-05-09T00:27:57.604Z,57201.23
2024-05-09T00:30:34.274Z,57211.82
2024-05-09T00:33:01.104Z,57199.11
2024-05-09T00:35:32.283Z,57202.29
2024-05-09T00:38:02.636Z,57216.05
2024-05-09T00:40:42.308Z,57221.35
2024-05-09T00:43:13.430Z,57221.35
2024-05-09T00:45:44.639Z,57198.05
2024-05-09T00:48:19.738Z,57223.46
2024-05-09T00:50:49.531Z,57223.46
2024-05-09T00:53:20.066Z,57184.29
2024-05-09T00:55:52.512Z,57195.93
2024-05-09T00:58:26.511Z,57222.41
2024-05-09T01:00:58.567Z,57220.29
2024-05-09T01:03:29.127Z,57196.99
2024-05-09T01:05:59.797Z,57207.58
2024-05-09T01:08:30.217Z,57233.00
2024-05-09T01:11:00.855Z,57208.64
2024-05-09T01:13:31.423Z,57221.35
2024-05-09T01:16:02.640Z,57221.35
2024-05-09T01:18:33.259Z,57185.34
2024-05-09T01:21:03.787Z,57234.06
2024-05-09T01:23:34.442Z,57234.06
2024-05-09T01:26:04.784Z,57222.41
2024-05-09T01:28:34.977Z,57239.35
2024-05-09T01:31:05.497Z,57223.46
2024-05-09T01:33:36.001Z,57222.41
2024-05-09T01:36:06.684Z,57207.58
2024-05-09T01:38:37.228Z,57205.46
2024-05-09T01:41:07.587Z,57211.82
2024-05-09T01:43:38.085Z,57209.70
2024-05-09T01:46:13.072Z,57222.41
2024-05-09T01:48:43.815Z,57222.41
2024-05-09T01:51:14.211Z,57207.58
2024-05-09T01:54:05.411Z,57198.05
2024-05-09T01:56:35.859Z,57210.76
2024-05-09T01:59:06.063Z,57228.76
2024-05-09T02:01:56.178Z,57212.87
2024-05-09T02:04:17.364Z,57203.34
2024-05-09T02:06:48.551Z,57213.94
2024-05-09T02:09:20.540Z,57213.94
2024-05-09T02:11:50.780Z,57221.35
2024-05-09T02:14:21.188Z,57217.11
2024-05-09T02:16:51.660Z,57203.34
2024-05-09T02:19:22.197Z,57187.46
2024-05-09T02:21:52.740Z,57196.99
2024-05-09T02:24:23.002Z,57196.99
2024-05-09T02:26:53.308Z,57189.58
2024-05-09T02:29:23.778Z,57211.82
2024-05-09T02:31:55.767Z,57210.76
2024-05-09T02:34:26.386Z,57203.34
2024-05-09T02:36:56.793Z,57188.52
2024-05-09T02:39:27.072Z,57188.52
2024-05-09T02:41:57.385Z,57199.11
2024-05-09T02:44:28.280Z,57225.59
2024-05-09T02:46:58.734Z,57231.94
2024-05-09T02:49:29.104Z,57224.53
2024-05-09T02:52:00.086Z,57225.59
2024-05-09T02:54:32.257Z,57220.29
2024-05-09T02:57:14.550Z,57217.11
2024-05-09T02:59:45.070Z,57217.11
2024-05-09T03:02:15.620Z,57221.35
2024-05-09T03:04:46.524Z,57219.23
2024-05-09T03:07:19.746Z,57184.29
2024-05-09T03:09:49.079Z,57231.94
2024-05-09T03:12:19.801Z,57225.59
2024-05-09T03:14:51.569Z,57222.41
2024-05-09T03:17:22.304Z,57218.17
2024-05-09T03:19:52.775Z,57189.58
2024-05-09T03:22:23.260Z,57225.59
2024-05-09T03:24:53.748Z,57219.23
2024-05-09T03:27:24.168Z,57216.05
2024-05-09T03:29:54.948Z,57225.59
2024-05-09T03:32:25.451Z,57225.59
2024-05-09T03:34:56.388Z,57221.35
2024-05-09T03:37:26.526Z,57211.82
2024-05-09T03:39:56.947Z,57211.82
2024-05-09T03:42:27.210Z,57219.23
2024-05-09T03:45:02.227Z,57202.29
2024-05-09T03:47:32.989Z,57193.82
2024-05-09T03:50:05.616Z,57221.35
2024-05-09T03:52:35.880Z,57217.11
2024-05-09T03:55:06.622Z,57206.52
2024-05-09T03:57:37.035Z,57206.52
2024-05-09T04:00:17.720Z,57203.34
2024-05-09T04:02:45.625Z,57220.29
2024-05-09T04:05:16.046Z,57206.52
2024-05-09T04:07:46.451Z,57206.52
2024-05-09T04:10:24.089Z,57225.59
2024-05-09T04:12:48.818Z,57251.00
2024-05-09T04:15:19.044Z,57212.87
2024-05-09T04:17:50.015Z,57229.82
2024-05-09T04:20:29.541Z,57254.18
2024-05-09T04:22:52.463Z,57235.12
2024-05-09T04:25:22.632Z,57218.17
2024-05-09T04:27:52.894Z,57254.18
2024-05-09T04:30:34.083Z,57256.30
2024-05-09T04:32:55.282Z,57216.05
2024-05-09T04:35:25.794Z,57247.82
2024-05-09T04:37:56.262Z,57246.77
2024-05-09T04:40:33.247Z,57246.77
2024-05-09T04:42:59.636Z,57225.59
2024-05-09T04:45:29.927Z,57251.00
2024-05-09T04:48:02.273Z,57237.23
2024-05-09T04:50:37.527Z,57263.71
2024-05-09T04:53:06.988Z,57231.94
2024-05-09T04:55:44.063Z,57265.83
2024-05-09T04:58:17.386Z,57262.65
2024-05-09T05:00:48.615Z,57262.65
2024-05-09T05:03:19.194Z,57276.42
2024-05-09T05:05:49.777Z,57240.41
2024-05-09T05:08:20.201Z,57278.54
2024-05-09T05:10:50.736Z,57282.77
2024-05-09T05:13:22.235Z,57271.13
2024-05-09T05:15:54.483Z,57292.30
2024-05-09T05:18:25.335Z,57292.30
2024-05-09T05:20:56.809Z,57299.72
2024-05-09T05:23:27.210Z,57307.13
2024-05-09T05:25:58.207Z,57307.13
2024-05-09T05:28:28.647Z,57330.43
2024-05-09T05:31:01.938Z,57330.43
2024-05-09T05:33:33.134Z,57346.32
2024-05-09T05:36:03.809Z,57301.84
2024-05-09T05:38:34.330Z,57302.89
2024-05-09T05:41:04.630Z,57293.36
2024-05-09T05:43:34.936Z,57328.31
2024-05-09T05:46:05.297Z,57328.31
2024-05-09T05:48:36.853Z,57302.89
2024-05-09T05:51:07.299Z,57301.84
2024-05-09T05:53:37.926Z,57323.02
2024-05-09T05:56:08.619Z,57302.89
2024-05-09T05:58:38.880Z,57337.84
2024-05-09T06:01:10.403Z,57305.01
2024-05-09T06:03:40.834Z,57305.01
2024-05-09T06:06:12.847Z,57326.20
2024-05-09T06:08:43.973Z,57328.31
2024-05-09T06:11:14.484Z,57337.84
2024-05-09T06:13:45.016Z,57337.84
2024-05-09T06:16:15.162Z,57378.09
2024-05-09T06:18:45.584Z,57378.09
2024-05-09T06:21:19.388Z,57436.34
2024-05-09T06:23:53.711Z,57436.34
2024-05-09T06:26:24.190Z,57392.91
2024-05-09T06:28:54.400Z,57464.93
2024-05-09T06:31:25.062Z,57395.03
2024-05-09T06:33:55.430Z,57435.28
2024-05-09T06:36:26.176Z,57435.28
2024-05-09T06:38:56.991Z,57485.05
2024-05-09T06:41:27.272Z,57485.05
2024-05-09T06:43:57.516Z,57521.07
2024-05-09T06:46:27.719Z,57521.07
2024-05-09T06:48:58.952Z,57508.36
2024-05-09T06:51:29.788Z,57530.60
2024-05-09T06:54:01.264Z,57506.24
2024-05-09T06:56:31.519Z,57540.13
2024-05-09T06:59:03.036Z,57522.12
2024-05-09T07:01:33.410Z,57569.79
2024-05-09T07:04:03.848Z,57517.89
2024-05-09T07:06:34.578Z,57517.89
2024-05-09T07:09:05.111Z,57499.88
2024-05-09T07:11:35.318Z,57535.89
2024-05-09T07:14:06.261Z,57556.02
2024-05-09T07:16:36.641Z,57602.62
2024-05-09T07:19:08.087Z,57602.62
2024-05-09T07:21:38.739Z,57587.79
2024-05-09T07:24:11.970Z,57629.10
2024-05-09T07:26:43.949Z,57605.80
2024-05-09T07:29:14.312Z,57605.80
2024-05-09T07:31:44.648Z,57665.11
2024-05-09T07:34:15.144Z,57622.74
2024-05-09T07:36:45.834Z,57655.58
2024-05-09T07:39:16.161Z,57655.58
2024-05-09T07:41:46.382Z,57636.51
2024-05-09T07:44:16.955Z,57712.77
2024-05-09T07:47:48.575Z,57712.77
2024-05-09T07:54:27.193Z,57668.29
2024-05-09T07:56:59.257Z,57668.29
2024-05-09T07:59:30.094Z,57672.52
2024-05-09T08:02:01.385Z,57684.18
2024-05-09T08:04:32.117Z,57701.12
2024-05-09T08:07:02.788Z,57676.76
2024-05-09T08:09:38.423Z,57796.45
2024-05-09T08:12:05.472Z,57850.47
2024-05-09T08:14:36.134Z,57850.47
2024-05-09T08:17:06.798Z,57846.23
2024-05-09T08:19:37.154Z,57857.88
2024-05-09T08:22:07.610Z,57857.88
2024-05-09T08:24:39.397Z,57783.74
2024-05-09T08:27:09.738Z,57894.95
2024-05-09T08:29:44.778Z,57894.95
2024-05-09T08:32:15.172Z,57848.35
2024-05-09T08:34:45.555Z,57848.35
2024-05-09T08:37:22.127Z,57753.02
2024-05-09T08:39:47.917Z,57764.67
2024-05-09T08:42:20.384Z,57744.55
2024-05-09T08:44:51.530Z,57748.79
2024-05-09T08:47:21.918Z,57712.77
2024-05-09T08:49:52.600Z,57712.77
2024-05-09T08:52:23.034Z,57764.67
2024-05-09T08:54:56.376Z,57764.67
2024-05-09T08:57:28.801Z,57810.21
2024-05-09T09:00:02.608Z,57662.99
2024-05-09T09:02:37.341Z,57662.99
2024-05-09T09:05:13.018Z,57700.06
2024-05-09T09:07:44.393Z,57755.14
2024-05-09T09:10:24.935Z,57729.72
2024-05-09T09:12:54.157Z,57729.72
2024-05-09T09:15:27.890Z,57782.68
2024-05-09T09:18:03.897Z,57812.34
2024-05-09T09:20:36.808Z,57826.11
2024-05-09T09:23:06.377Z,57826.11
2024-05-09T09:25:41.247Z,57828.22
2024-05-09T09:28:12.022Z,57828.22
2024-05-09T09:30:43.597Z,57975.46
2024-05-09T09:33:14.307Z,57975.46
2024-05-09T09:35:44.914Z,57936.27
2024-05-09T09:38:18.301Z,57901.31
2024-05-09T09:40:50.159Z,57963.80
2024-05-09T09:43:22.626Z,57963.80
2024-05-09T09:45:59.949Z,57957.45
2024-05-09T09:48:32.116Z,57973.34
2024-05-09T09:51:03.217Z,58013.59
2024-05-09T09:53:35.096Z,57963.80
2024-05-09T09:56:07.804Z,57926.73
2024-05-09T09:58:40.180Z,57979.70
2024-05-09T10:01:15.280Z,57978.64
2024-05-09T10:03:46.493Z,57978.64
2024-05-09T10:06:21.539Z,57863.18
2024-05-09T10:08:53.028Z,57863.18
2024-05-09T10:11:25.750Z,58019.95
2024-05-09T10:13:57.636Z,58019.95
2024-05-09T10:16:31.112Z,57976.52
2024-05-09T10:19:02.987Z,57976.52
2024-05-09T10:21:33.463Z,58077.15
2024-05-09T10:24:05.410Z,58059.14
2024-05-09T10:26:37.621Z,58036.89
2024-05-09T10:29:15.086Z,58079.27
2024-05-09T10:31:50.314Z,58079.27
2024-05-09T10:34:24.254Z,58072.91
2024-05-09T10:36:55.827Z,58107.87
2024-05-09T10:39:26.282Z,58107.87
2024-05-09T10:41:59.331Z,58021.01
2024-05-09T10:44:30.360Z,57937.32
2024-05-09T10:47:01.052Z,57924.61
2024-05-09T10:49:34.553Z,57863.18
2024-05-09T10:52:05.292Z,57875.89
2024-05-09T10:54:39.069Z,57910.84
2024-05-09T10:57:09.257Z,57910.84
2024-05-09T10:59:40.264Z,57921.43
2024-05-09T11:02:12.287Z,57927.79
2024-05-09T11:04:44.922Z,57927.79
2024-05-09T11:07:20.181Z,57880.12
2024-05-09T11:09:51.189Z,57849.41
2024-05-09T11:12:24.979Z,57849.41
2024-05-09T11:15:00.226Z,57835.64
2024-05-09T11:17:33.591Z,57945.80
2024-05-09T11:20:10.480Z,58154.48
2024-05-09T11:22:47.451Z,57986.05
2024-05-09T11:25:17.907Z,58009.36
2024-05-09T11:27:48.734Z,57875.89
2024-05-09T11:32:52.650Z,57785.86
2024-05-09T11:35:23.185Z,57751.96
2024-05-09T11:37:53.693Z,57821.87
2024-05-09T11:40:32.027Z,57817.63
2024-05-09T11:43:00.287Z,57817.63
2024-05-09T11:45:30.951Z,57816.57
2024-05-09T11:48:01.333Z,57830.34
2024-05-09T11:50:36.233Z,57830.34
2024-05-09T11:53:07.122Z,57994.52
2024-05-09T11:55:37.503Z,57936.27
2024-05-09T11:58:08.870Z,57936.27
2024-05-09T12:00:39.373Z,57966.98
2024-05-09T12:03:10.096Z,57966.98
2024-05-09T12:05:40.830Z,57900.25
2024-05-09T12:08:12.102Z,58055.96
2024-05-09T12:10:42.661Z,58013.59
2024-05-09T12:13:13.822Z,58037.95
2024-05-09T12:15:43.946Z,58112.11
2024-05-09T12:18:14.502Z,58035.84
2024-05-09T12:20:46.497Z,58238.16
2024-05-09T12:23:16.729Z,58138.59
2024-05-09T12:25:47.473Z,58138.59
2024-05-09T12:28:18.271Z,58141.77
2024-05-09T12:30:49.701Z,58232.87
2024-05-09T12:33:20.223Z,58176.72
2024-05-09T12:35:51.190Z,58176.72
2024-05-09T12:38:22.618Z,58172.48
2024-05-09T12:40:56.262Z,58172.48
2024-05-09T12:43:26.679Z,58178.84
2024-05-09T12:45:57.110Z,58143.88
2024-05-09T12:48:27.405Z,58166.13
2024-05-09T12:50:58.125Z,58166.13
2024-05-09T12:53:28.381Z,58170.37
2024-05-09T12:56:02.244Z,57929.91
2024-05-09T12:58:34.832Z,57957.45
2024-05-09T13:01:06.856Z,57957.45
2024-05-09T13:03:39.075Z,57941.56
2024-05-09T13:06:09.831Z,58080.32
2024-05-09T13:08:41.793Z,57965.93
2024-05-09T13:11:12.315Z,57965.93
2024-05-09T13:13:44.567Z,58112.11
2024-05-09T13:16:15.058Z,58057.02
2024-05-09T13:18:45.560Z,58055.96
2024-05-09T13:21:16.201Z,58132.23
2024-05-09T13:23:46.632Z,58065.50
2024-05-09T13:26:17.106Z,58029.48
2024-05-09T13:28:54.339Z,58034.78
2024-05-09T13:31:27.011Z,57995.58
2024-05-09T13:33:57.641Z,57995.58
2024-05-09T13:36:28.495Z,57996.64
2024-05-09T13:38:58.869Z,58016.77
2024-05-09T13:41:29.037Z,58016.77
2024-05-09T13:44:00.439Z,58011.47
2024-05-09T13:46:31.845Z,58019.95
2024-05-09T13:49:03.164Z,57957.45
2024-05-09T13:51:33.692Z,57957.45
2024-05-09T13:54:04.434Z,58037.95
2024-05-09T13:56:36.463Z,57983.93
2024-05-09T13:59:09.807Z,57983.93
2024-05-09T14:01:40.365Z,57921.43
2024-05-09T14:04:11.323Z,57952.16
2024-05-09T14:06:43.658Z,57857.88
2024-05-09T14:09:16.589Z,57823.99
2024-05-09T14:11:49.831Z,57823.99
2024-05-09T14:14:20.397Z,57823.99
2024-05-09T14:16:50.826Z,57774.20
2024-05-09T14:19:21.294Z,57737.13
2024-05-09T14:21:53.703Z,57724.42
2024-05-09T14:24:25.542Z,57724.42
2024-05-09T14:26:57.462Z,57690.53
2024-05-09T14:29:27.921Z,57690.53
2024-05-09T14:31:58.403Z,57655.58
2024-05-09T14:34:28.967Z,57678.88
2024-05-09T14:36:59.794Z,57678.88
2024-05-09T14:39:30.302Z,57657.70
2024-05-09T14:42:03.496Z,57600.50
2024-05-09T14:44:34.190Z,57630.16
2024-05-09T14:47:05.408Z,57653.46
2024-05-09T14:49:37.120Z,57602.62
2024-05-09T14:52:07.653Z,57623.80
2024-05-09T14:54:38.393Z,57557.08
2024-05-09T14:57:09.116Z,57572.96
2024-05-09T14:59:39.632Z,57584.61
2024-05-09T15:02:09.993Z,57572.96
2024-05-09T15:04:40.609Z,57564.49
2024-05-09T15:07:32.451Z,57560.25
2024-05-09T15:09:52.496Z,57517.89
2024-05-09T15:12:26.167Z,57517.89
2024-05-09T15:14:57.445Z,57497.77
2024-05-09T15:17:27.912Z,57502.00
2024-05-09T15:19:59.047Z,57513.65
2024-05-09T15:22:32.912Z,57475.52
2024-05-09T15:25:04.261Z,57474.46
2024-05-09T15:27:35.040Z,57474.46
2024-05-09T15:30:11.029Z,57510.48
2024-05-09T15:32:44.989Z,57511.54
2024-05-09T15:35:15.573Z,57490.35
2024-05-09T15:37:47.038Z,57475.52
2024-05-09T15:40:26.782Z,57432.10
2024-05-09T15:42:53.479Z,57484.00
2024-05-09T15:45:28.083Z,57457.52
2024-05-09T15:47:59.417Z,57469.17
2024-05-09T15:50:38.048Z,57499.88
2024-05-09T15:53:04.381Z,57479.76
2024-05-09T15:55:36.431Z,57479.76
2024-05-09T15:58:07.647Z,57481.88
2024-05-09T16:00:44.358Z,57480.82
2024-05-09T16:03:16.036Z,57427.87
2024-05-09T16:05:47.371Z,57427.87
2024-05-09T16:08:18.781Z,57436.34
2024-05-09T16:10:52.928Z,57443.75
2024-05-09T16:13:24.807Z,57468.11
2024-05-09T16:15:58.459Z,57438.46
2024-05-09T16:18:30.803Z,57438.46
2024-05-09T16:21:02.736Z,57452.23
2024-05-09T16:23:38.832Z,57427.87
2024-05-09T16:26:10.965Z,57435.28
2024-05-09T16:28:43.841Z,57435.28
2024-05-09T16:31:16.642Z,57445.87
2024-05-09T16:33:51.376Z,57432.10
2024-05-09T16:36:22.246Z,57467.05
2024-05-09T16:38:58.118Z,57423.63
2024-05-09T16:41:28.492Z,57423.63
2024-05-09T16:43:59.151Z,57401.39
2024-05-09T16:46:35.469Z,57401.39
2024-05-09T16:49:08.594Z,57427.87
2024-05-09T16:51:44.449Z,57397.15
2024-05-09T16:54:15.493Z,57397.15
2024-05-09T16:56:47.502Z,57371.73
2024-05-09T16:59:20.868Z,57424.69
2024-05-09T17:01:51.992Z,57387.62
2024-05-09T17:04:23.555Z,57387.62
2024-05-09T17:06:59.241Z,57400.33
2024-05-09T17:09:33.476Z,57379.15
2024-05-09T17:12:04.237Z,57384.44
2024-05-09T17:14:36.231Z,57384.44
2024-05-09T17:17:10.301Z,57374.91
2024-05-09T17:19:40.732Z,57392.91
2024-05-09T17:22:11.110Z,57392.91
2024-05-09T17:24:42.587Z,57359.03
2024-05-09T17:27:20.890Z,57360.08
2024-05-09T17:29:53.227Z,57378.09
2024-05-09T17:32:24.039Z,57323.02
2024-05-09T17:34:54.681Z,57384.44
2024-05-09T17:37:25.617Z,57332.55
2024-05-09T17:40:00.598Z,57332.55
2024-05-09T17:42:31.210Z,57338.90
2024-05-09T17:45:01.639Z,57338.90
2024-05-09T17:47:32.249Z,57336.79
2024-05-09T17:50:09.586Z,57326.20
2024-05-09T17:52:39.201Z,57351.61
2024-05-09T17:55:19.059Z,57351.61
2024-05-09T17:57:49.873Z,57330.43
2024-05-09T18:00:29.012Z,57325.14
2024-05-09T18:02:54.410Z,57334.67
2024-05-09T18:05:25.495Z,57334.67
2024-05-09T18:07:56.885Z,57303.95
2024-05-09T18:10:35.215Z,57334.67
2024-05-09T18:13:05.478Z,57303.95
2024-05-09T18:15:36.766Z,57335.73
2024-05-09T18:18:07.979Z,57335.73
2024-05-09T18:20:45.040Z,57312.43
2024-05-09T18:23:16.472Z,57292.30
2024-05-09T18:25:47.861Z,57296.54
2024-05-09T18:28:19.184Z,57285.95
2024-05-09T18:30:49.644Z,57285.95
2024-05-09T18:33:20.155Z,57297.60
2024-05-09T18:35:50.521Z,57318.78
2024-05-09T18:38:22.261Z,57318.78
2024-05-09T18:40:53.645Z,57312.43
2024-05-09T18:43:31.029Z,57263.71
2024-05-09T18:45:57.127Z,57303.95
2024-05-09T18:48:27.472Z,57260.54
2024-05-09T18:50:57.892Z,57293.36
2024-05-09T18:53:28.484Z,57291.25
2024-05-09T18:55:58.855Z,57291.25
2024-05-09T19:01:43.191Z,57295.48
2024-05-09T19:04:16.879Z,57291.25
2024-05-09T19:06:47.566Z,57295.48
2024-05-09T19:09:19.117Z,57287.01
2024-05-09T19:11:51.019Z,57261.59
2024-05-09T19:14:21.557Z,57259.47
2024-05-09T19:16:51.995Z,57279.59
2024-05-09T19:19:22.422Z,57280.66
2024-05-09T19:21:59.121Z,57280.66
2024-05-09T19:24:47.874Z,57278.54
2024-05-09T19:27:18.265Z,57276.42
2024-05-09T19:29:48.561Z,57271.13
2024-05-09T19:32:19.074Z,57271.13
2024-05-09T19:34:49.484Z,57276.42
2024-05-09T19:37:19.877Z,57295.48
2024-05-09T19:39:50.351Z,57245.71
2024-05-09T19:42:20.714Z,57267.95
2024-05-09T19:44:51.353Z,57273.24
2024-05-09T19:47:22.535Z,57278.54
2024-05-09T19:49:52.814Z,57265.83
2024-05-09T19:52:23.327Z,57257.36
2024-05-09T19:54:53.816Z,57238.29
2024-05-09T19:57:24.715Z,57263.71
2024-05-09T19:59:55.070Z,57255.24
2024-05-09T20:02:27.287Z,57263.71
2024-05-09T20:04:57.323Z,57254.18
2024-05-09T20:07:27.616Z,57242.53
2024-05-09T20:09:58.068Z,57269.00
2024-05-09T20:12:28.694Z,57269.00
2024-05-09T20:15:06.984Z,57255.24
2024-05-09T20:17:38.542Z,57248.88
2024-05-09T20:20:16.639Z,57235.12
2024-05-09T20:22:42.533Z,57234.06
2024-05-09T20:25:13.495Z,57251.00
2024-05-09T20:27:44.076Z,57241.47
2024-05-09T20:30:21.029Z,57261.59
2024-05-09T20:32:46.673Z,57249.95
2024-05-09T20:35:17.140Z,57262.65
2024-05-09T20:37:47.498Z,57262.65
2024-05-09T20:40:25.591Z,57234.06
2024-05-09T20:42:49.817Z,57229.82
2024-05-09T20:45:20.243Z,57204.41
2024-05-09T20:47:51.147Z,57238.29
2024-05-09T20:50:32.354Z,57222.41
2024-05-09T20:52:55.067Z,57225.59
2024-05-09T20:55:25.384Z,57229.82
2024-05-09T20:57:55.686Z,57242.53
2024-05-09T21:00:34.963Z,57223.46
2024-05-09T21:02:58.108Z,57234.06
2024-05-09T21:05:28.722Z,57219.23
2024-05-09T21:07:59.162Z,57249.95
2024-05-09T21:10:32.952Z,57224.53
2024-05-09T21:13:06.444Z,57218.17
2024-05-09T21:15:37.386Z,57229.82
2024-05-09T21:18:08.287Z,57226.64
2024-05-09T21:20:40.147Z,57218.17
2024-05-09T21:23:10.408Z,57218.17
2024-05-09T21:25:40.795Z,57208.64
2024-05-09T21:28:11.202Z,57211.82
2024-05-09T21:30:43.182Z,57211.82
2024-05-09T21:33:14.867Z,57218.17
2024-05-09T21:35:45.682Z,57233.00
2024-05-09T21:38:16.082Z,57225.59
2024-05-09T21:40:46.344Z,57235.12
2024-05-09T21:43:16.649Z,57243.59
2024-05-09T21:45:46.845Z,57223.46
2024-05-09T21:48:17.305Z,57231.94
2024-05-09T21:50:47.504Z,57235.12
2024-05-09T21:53:18.259Z,57243.59
2024-05-09T21:55:48.614Z,57228.76
2024-05-09T21:58:19.311Z,57219.23
2024-05-09T22:00:49.826Z,57234.06
2024-05-09T22:03:20.102Z,57206.52
2024-05-09T22:05:50.323Z,57207.58
2024-05-09T22:08:20.498Z,57221.35
2024-05-09T22:10:50.923Z,57221.35
2024-05-09T22:13:22.882Z,57203.34
2024-05-09T22:15:53.304Z,57245.71
2024-05-09T22:18:25.496Z,57213.94
2024-05-09T22:21:00.909Z,57213.94
2024-05-09T22:23:36.081Z,57219.23
2024-05-09T22:26:07.480Z,57218.17
2024-05-09T22:28:37.918Z,57189.58
2024-05-09T22:31:13.869Z,57226.64
2024-05-09T22:33:51.363Z,57199.11
2024-05-09T22:36:32.710Z,57205.46
2024-05-09T22:39:02.896Z,57238.29
2024-05-09T22:41:33.510Z,57238.29
2024-05-09T22:44:03.824Z,57229.82
2024-05-09T22:46:34.676Z,57242.53
2024-05-09T22:49:05.286Z,57209.70
2024-05-09T22:51:35.733Z,57227.70
2024-05-09T22:54:06.067Z,57210.76
2024-05-09T22:56:36.444Z,57215.00
2024-05-09T22:59:07.011Z,57218.17
2024-05-09T23:01:37.590Z,57222.41
2024-05-09T23:04:07.955Z,57231.94
2024-05-09T23:06:42.475Z,57207.58
2024-05-09T23:09:19.121Z,57211.82
2024-05-09T23:11:49.477Z,57210.76
2024-05-09T23:14:19.858Z,57201.23
2024-05-09T23:16:50.336Z,57201.23
2024-05-09T23:19:20.622Z,57206.52
2024-05-09T23:21:51.058Z,57218.17
2024-05-09T23:24:21.481Z,57205.46
2024-05-09T23:26:51.866Z,57207.58
2024-05-09T23:29:22.099Z,57209.70
2024-05-09T23:31:52.601Z,57207.58
2024-05-09T23:34:23.066Z,57195.93
2024-05-09T23:36:53.589Z,57209.70
2024-05-09T23:39:28.286Z,57194.88
2024-05-09T23:41:58.564Z,57209.70
2024-05-09T23:44:28.754Z,57233.00
2024-05-09T23:46:59.187Z,57209.70
2024-05-09T23:49:29.592Z,57213.94
2024-05-09T23:52:00.122Z,57191.70
2024-05-09T23:54:30.602Z,57194.88
2024-05-09T23:57:00.859Z,57203.34
2024-05-09T23:59:32.606Z,57222.41
